Time;durP1;ratioP1;P1;durP2;ratioP2;P2;SDS_P1;SDS_P2;PMS_P1;PMS_P2;Temp;Humidity;BMP_temperature;BMP_pressure;BME280_temperature;BME280_humidity;BME280_pressure;Samples;Min_cycle;Max_cycle;Signal;HPM_P1;HPM_P2
2022/07/19 00:00:31;;;;;;;8.02;5.22;;;;;;;16.20;77.03;101662.31;10543862;28;20032;-75
2022/07/19 00:05:32;;;;;;;13.18;5.20;;;;;;;16.10;77.51;101661.97;10513426;28;20036;-76
2022/07/19 00:10:32;;;;;;;8.05;4.20;;;;;;;16.08;76.59;101652.22;10500629;28;20119;-76
2022/07/19 00:15:33;;;;;;;7.88;4.47;;;;;;;16.08;77.95;101658.38;10561649;28;20088;-76
2022/07/19 00:20:33;;;;;;;6.88;4.70;;;;;;;15.98;77.75;101648.31;10568400;28;20556;-75
2022/07/19 00:25:34;;;;;;;5.50;4.25;;;;;;;15.93;77.54;101647.22;10538696;28;20028;-76
2022/07/19 00:30:34;;;;;;;8.95;4.43;;;;;;;15.85;78.32;101647.81;10512091;28;20123;-76
2022/07/19 00:35:36;;;;;;;7.35;5.75;;;;;;;15.75;79.06;101634.22;10542839;28;20064;-76
2022/07/19 00:40:37;;;;;;;7.83;4.43;;;;;;;15.67;78.43;101632.19;10571956;28;20028;-76
2022/07/19 00:45:37;;;;;;;6.63;3.75;;;;;;;15.65;77.77;101623.31;10520221;28;20064;-76
2022/07/19 00:50:38;;;;;;;7.07;4.63;;;;;;;15.62;77.50;101628.47;10494471;28;20505;-76
2022/07/19 00:55:40;;;;;;;5.72;4.07;;;;;;;15.54;78.18;101621.97;10557642;28;20047;-75
2022/07/19 01:00:40;;;;;;;8.10;6.30;;;;;;;15.48;80.10;101619.09;10480283;28;20036;-76
2022/07/19 01:05:41;;;;;;;9.95;5.18;;;;;;;15.36;81.00;101622.13;10540125;28;20043;-75
2022/07/19 01:10:41;;;;;;;7.40;6.40;;;;;;;15.25;81.48;101621.72;10570477;28;20453;-76
2022/07/19 01:15:42;;;;;;;8.75;4.75;;;;;;;15.15;82.12;101609.88;10529338;28;20056;-76
2022/07/19 01:20:42;;;;;;;8.93;4.68;;;;;;;15.09;82.21;101614.91;10551448;28;20584;-76
2022/07/19 01:25:43;;;;;;;8.77;4.32;;;;;;;15.07;83.25;101600.75;10543217;28;20039;-76
2022/07/19 01:30:44;;;;;;;9.70;4.82;;;;;;;15.09;85.01;101605.28;10511612;28;20036;-76
2022/07/19 01:35:45;;;;;;;7.32;5.20;;;;;;;15.08;85.61;101602.56;10534322;28;20140;-75
2022/07/19 01:40:45;;;;;;;8.48;5.55;;;;;;;15.01;85.60;101606.69;10569187;28;20039;-75
2022/07/19 01:45:46;;;;;;;5.70;5.07;;;;;;;14.94;84.70;101608.16;10523758;28;20047;-75
2022/07/19 01:50:47;;;;;;;8.80;4.97;;;;;;;14.89;84.75;101600.91;10498595;28;20463;-76
2022/07/19 01:55:47;;;;;;;10.75;6.20;;;;;;;14.83;85.32;101601.53;10481976;28;20041;-76
2022/07/19 02:00:48;;;;;;;6.45;4.90;;;;;;;14.76;85.07;101604.75;10449854;28;20115;-75
2022/07/19 02:05:48;;;;;;;6.55;5.40;;;;;;;14.71;85.20;101608.94;10519082;28;20493;-75
2022/07/19 02:10:51;;;;;;;7.78;4.65;;;;;;;14.66;85.83;101600.81;10567658;28;20069;-75
2022/07/19 02:15:55;;;;;;;6.15;4.45;;;;;;;14.61;85.21;101602.34;10522436;28;20154;-75
2022/07/19 02:20:56;;;;;;;6.63;5.80;;;;;;;14.56;85.20;101598.63;10466408;28;20055;-75
2022/07/19 02:25:57;;;;;;;8.93;5.60;;;;;;;14.50;85.11;101591.34;10535379;28;20399;-76
2022/07/19 02:30:57;;;;;;;9.90;6.88;;;;;;;14.49;85.68;101590.44;10549450;28;20032;-76
2022/07/19 02:35:58;;;;;;;6.43;4.70;;;;;;;14.46;85.87;101600.84;10537461;28;20092;-76
2022/07/19 02:40:58;;;;;;;8.45;4.85;;;;;;;14.43;86.77;101590.19;10498554;28;20502;-76
2022/07/19 02:45:59;;;;;;;9.05;5.60;;;;;;;14.44;88.39;101594.63;10550631;28;20043;-75
2022/07/19 02:50:59;;;;;;;11.90;5.78;;;;;;;14.49;88.96;101594.81;10548934;28;20065;-76
2022/07/19 02:56:00;;;;;;;13.75;7.90;;;;;;;14.35;88.91;101595.09;10505277;28;20483;-75
2022/07/19 03:01:00;;;;;;;6.15;5.18;;;;;;;14.29;89.35;101592.19;10503691;28;20086;-75
2022/07/19 03:06:01;;;;;;;8.90;5.05;;;;;;;14.18;88.91;101580.28;10511358;28;20080;-75
2022/07/19 03:11:01;;;;;;;6.82;5.03;;;;;;;14.09;89.11;101586.94;10428416;28;20049;-75
2022/07/19 03:16:02;;;;;;;8.68;5.82;;;;;;;14.06;89.31;101593.81;10482182;28;20076;-75
2022/07/19 03:21:02;;;;;;;10.82;6.38;;;;;;;14.01;89.24;101582.19;10488659;28;20048;-75
2022/07/19 03:26:04;;;;;;;8.60;6.28;;;;;;;13.92;89.99;101587.94;10482019;28;20044;-75
2022/07/19 03:31:04;;;;;;;11.87;6.13;;;;;;;13.84;89.75;101579.69;10472287;28;20044;-75
2022/07/19 03:36:05;;;;;;;11.35;6.95;;;;;;;13.78;90.03;101577.66;10490896;28;20075;-76
2022/07/19 03:41:06;;;;;;;11.68;7.53;;;;;;;13.77;89.97;101578.50;10525426;28;20051;-75
2022/07/19 03:46:06;;;;;;;8.98;6.32;;;;;;;13.77;90.18;101581.13;10466487;28;20445;-74
2022/07/19 03:51:11;;;;;;;11.32;6.93;;;;;;;13.77;90.26;101574.97;10483916;28;20071;-74
2022/07/19 03:56:12;;;;;;;13.65;6.85;;;;;;;13.77;90.82;101581.13;10493602;28;20044;-73
2022/07/19 04:01:12;;;;;;;12.35;8.25;;;;;;;13.79;90.69;101575.97;10524450;28;20036;-73
2022/07/19 04:06:13;;;;;;;8.75;6.03;;;;;;;13.80;90.97;101583.03;10540098;28;20096;-74
2022/07/19 04:11:13;;;;;;;10.60;8.30;;;;;;;13.85;91.67;101584.13;10536794;28;20048;-73
2022/07/19 04:16:14;;;;;;;11.00;7.90;;;;;;;13.92;91.56;101580.94;10541891;28;20047;-75
2022/07/19 04:21:14;;;;;;;11.90;8.38;;;;;;;14.06;91.06;101578.03;10510907;28;20036;-73
2022/07/19 04:26:15;;;;;;;12.27;8.05;;;;;;;14.18;90.88;101575.03;10539811;28;20040;-74
2022/07/19 04:31:16;;;;;;;17.73;10.10;;;;;;;14.27;90.79;101585.97;10564199;28;20071;-73
2022/07/19 04:36:17;;;;;;;11.77;8.63;;;;;;;14.37;90.13;101585.53;10521191;28;20032;-73
2022/07/19 04:41:17;;;;;;;12.65;8.88;;;;;;;14.56;89.36;101588.97;10570213;28;20051;-73
2022/07/19 04:46:18;;;;;;;14.68;9.27;;;;;;;14.87;88.12;101584.13;10540976;28;20024;-74
2022/07/19 04:51:18;;;;;;;10.05;8.00;;;;;;;15.11;86.66;101582.50;10528399;28;20059;-76
2022/07/19 04:56:19;;;;;;;11.15;7.95;;;;;;;15.17;85.42;101580.97;10522640;28;20039;-75
2022/07/19 05:01:20;;;;;;;10.50;6.97;;;;;;;15.27;84.62;101580.50;10536755;28;20452;-75
2022/07/19 05:06:21;;;;;;;10.63;8.27;;;;;;;15.39;84.48;101577.41;10485530;28;20079;-75
2022/07/19 05:11:22;;;;;;;12.70;8.35;;;;;;;15.54;84.30;101587.69;10535256;28;20046;-75
2022/07/19 05:16:22;;;;;;;12.63;8.43;;;;;;;15.72;84.95;101579.56;10493166;28;20042;-74
2022/07/19 05:21:23;;;;;;;12.07;8.73;;;;;;;16.13;84.22;101585.50;10535892;28;20036;-74
2022/07/19 05:26:23;;;;;;;10.27;6.97;;;;;;;17.15;83.14;101576.63;10494657;28;20044;-74
2022/07/19 05:31:24;;;;;;;10.77;6.78;;;;;;;18.20;76.24;101584.16;10492611;28;20434;-74
2022/07/19 05:36:24;;;;;;;9.30;6.50;;;;;;;19.65;70.91;101575.34;10510804;28;20513;-74
2022/07/19 05:41:25;;;;;;;11.57;6.37;;;;;;;20.36;66.72;101576.78;10503919;28;20040;-73
2022/07/19 05:46:28;;;;;;;9.90;6.67;;;;;;;20.74;66.88;101585.41;10495422;28;20617;-73
2022/07/19 05:51:29;;;;;;;11.32;6.78;;;;;;;21.30;68.32;101578.31;10507925;28;20040;-74
2022/07/19 05:56:29;;;;;;;7.37;5.90;;;;;;;22.00;64.02;101577.50;10507796;28;20051;-74
2022/07/19 06:01:30;;;;;;;11.37;7.03;;;;;;;23.05;60.47;101572.25;10508254;28;20094;-74
2022/07/19 06:06:32;;;;;;;10.57;5.93;;;;;;;23.83;60.26;101584.28;10500783;28;20092;-74
2022/07/19 06:11:33;;;;;;;16.20;6.68;;;;;;;25.07;55.23;101572.91;10524872;28;20040;-75
2022/07/19 06:16:33;;;;;;;9.75;5.90;;;;;;;25.92;54.39;101571.75;10537861;28;20456;-75
2022/07/19 06:21:34;;;;;;;16.35;6.13;;;;;;;26.22;51.62;101572.50;10502981;28;20105;-76
2022/07/19 06:26:34;;;;;;;12.55;6.40;;;;;;;26.76;52.42;101572.09;10514741;28;20578;-76
2022/07/19 06:31:35;;;;;;;;;;;;;;;27.29;50.10;101576.09;10538599;28;20131;-76
2022/07/19 06:36:35;;;;;;;9.20;4.40;;;;;;;28.23;49.16;101584.81;10524452;28;19926;-76
2022/07/19 06:41:36;;;;;;;15.20;6.47;;;;;;;28.94;43.25;101578.28;10487306;28;20455;-77
2022/07/19 06:46:36;;;;;;;10.20;5.60;;;;;;;29.00;44.21;101578.19;10478875;28;20048;-75
2022/07/19 06:51:37;;;;;;;23.98;7.47;;;;;;;29.76;39.02;101569.56;10496496;28;20071;-77
2022/07/19 06:56:38;;;;;;;22.35;5.50;;;;;;;30.32;40.90;101563.78;10546648;28;20039;-77
2022/07/19 07:01:38;;;;;;;11.32;5.20;;;;;;;31.50;36.38;101568.84;10556481;28;20036;-77
2022/07/19 07:06:39;;;;;;;18.25;6.00;;;;;;;32.03;36.41;101570.88;10574556;28;20491;-77
2022/07/19 07:11:39;;;;;;;16.17;5.78;;;;;;;31.75;35.13;101570.84;10574671;28;20084;-77
2022/07/19 07:16:40;;;;;;;20.58;5.25;;;;;;;31.46;35.57;101565.34;10556003;28;20032;-77
2022/07/19 07:21:40;;;;;;;13.77;5.97;;;;;;;31.49;36.51;101557.16;10540890;28;20046;-76
2022/07/19 07:26:41;;;;;;;18.55;6.28;;;;;;;32.05;33.77;101558.19;10572713;28;20046;-76
2022/07/19 07:31:42;;;;;;;12.35;5.20;;;;;;;32.59;35.40;101560.97;10573734;28;20608;-77
2022/07/19 07:36:43;;;;;;;14.25;5.35;;;;;;;32.63;36.35;101564.44;10556375;28;20131;-77
2022/07/19 07:41:44;;;;;;;15.18;4.78;;;;;;;33.33;32.58;101551.19;10572673;28;20383;-76
2022/07/19 07:46:44;;;;;;;10.82;4.65;;;;;;;34.47;31.36;101553.97;10572479;28;20042;-76
2022/07/19 07:51:45;;;;;;;12.88;5.38;;;;;;;34.81;31.14;101548.91;10554165;28;20051;-76
2022/07/19 07:56:45;;;;;;;12.32;5.03;;;;;;;34.61;33.22;101547.97;10538465;28;20073;-76
2022/07/19 08:01:46;;;;;;;13.02;5.05;;;;;;;35.16;30.38;101542.88;10572694;28;20040;-76
2022/07/19 08:06:46;;;;;;;10.80;5.03;;;;;;;36.17;26.90;101540.88;10559393;28;20131;-77
2022/07/19 08:11:47;;;;;;;20.83;5.70;;;;;;;37.15;26.04;101534.03;10527958;28;20071;-75
2022/07/19 08:16:48;;;;;;;15.85;4.95;;;;;;;36.89;25.63;101530.84;10543630;28;20143;-76
2022/07/19 08:21:48;;;;;;;16.38;4.68;;;;;;;37.80;25.35;101529.56;10509722;28;20039;-76
2022/07/19 08:26:48;;;;;;;11.10;5.68;;;;;;;38.23;27.63;101518.00;10520645;28;20046;-76
2022/07/19 08:31:49;;;;;;;13.60;6.35;;;;;;;37.79;24.45;101525.97;10517776;28;20166;-76
2022/07/19 08:36:50;;;;;;;12.90;4.95;;;;;;;38.37;27.79;101525.38;10517383;28;20040;-76
2022/07/19 08:41:50;;;;;;;14.07;4.07;;;;;;;37.76;22.24;101526.13;10507880;28;20181;-76
2022/07/19 08:46:51;;;;;;;10.07;4.90;;;;;;;38.20;21.57;101521.78;10516880;28;20074;-76
2022/07/19 08:51:51;;;;;;;12.18;3.63;;;;;;;38.17;19.91;101520.13;10503830;28;20120;-76
2022/07/19 09:02:11;;;;;;;8.40;3.50;;;;;;;39.14;22.77;101522.56;10518671;28;20048;-76
2022/07/19 09:07:12;;;;;;;6.70;3.58;;;;;;;38.89;23.87;101518.63;10534654;28;20111;-76
2022/07/19 09:12:12;;;;;;;12.15;5.68;;;;;;;39.42;22.17;101516.19;10517538;28;20028;-76
2022/07/19 09:17:16;;;;;;;12.65;4.78;;;;;;;39.35;21.12;101513.00;10478355;28;20059;-77
2022/07/19 09:22:19;;;;;;;6.85;4.43;;;;;;;40.18;21.09;101515.81;10527666;28;20387;-77
2022/07/19 09:27:25;;;;;;;7.72;5.10;;;;;;;40.54;19.32;101517.03;10542563;28;20113;-77
2022/07/19 09:32:25;;;;;;;10.85;4.50;;;;;;;40.35;19.66;101514.69;10532964;28;20035;-77
2022/07/19 09:37:28;;;;;;;9.35;4.40;;;;;;;40.64;20.93;101500.81;10545724;28;20067;-77
2022/07/19 09:42:42;;;;;;;8.13;4.22;;;;;;;40.85;20.11;101503.03;10527851;28;20135;-77
2022/07/19 09:47:44;;;;;;;10.70;5.43;;;;;;;40.85;18.48;101494.81;10537802;28;20031;-77
2022/07/19 09:52:46;;;;;;;6.55;3.60;;;;;;;41.59;18.15;101488.59;10536938;28;20059;-77
2022/07/19 09:57:48;;;;;;;13.98;5.35;;;;;;;41.31;19.35;101491.50;10547916;28;20051;-76
2022/07/19 10:02:51;;;;;;;8.60;3.75;;;;;;;41.64;17.77;101484.50;10545270;28;20031;-77
2022/07/19 10:07:51;;;;;;;14.18;4.53;;;;;;;42.16;17.79;101481.53;10528604;28;20050;-77
2022/07/19 10:12:52;;;;;;;7.72;3.58;;;;;;;41.68;17.94;101488.78;10564596;28;20039;-78
2022/07/19 10:18:22;;;;;;;9.77;4.35;;;;;;;41.44;21.67;101474.13;10509404;28;20399;-77
2022/07/19 10:23:50;;;;;;;10.38;4.53;;;;;;;41.54;18.82;101466.94;10510616;28;20036;-78
2022/07/19 10:29:17;;;;;;;5.72;3.42;;;;;;;41.98;18.06;101456.31;10526764;28;20031;-78
2022/07/19 10:34:21;;;;;;;6.57;4.13;;;;;;;42.90;18.13;101452.84;10509662;28;20062;-78
2022/07/19 10:39:38;;;;;;;6.57;3.20;;;;;;;42.70;19.57;101447.03;10499645;28;20400;-79
2022/07/19 10:45:01;;;;;;;11.20;4.75;;;;;;;42.78;16.63;101445.56;10526740;28;20387;-78
2022/07/19 10:50:08;;;;;;;9.80;4.25;;;;;;;42.61;16.22;101433.16;10523932;28;20044;-79
2022/07/19 10:55:18;;;;;;;10.63;3.88;;;;;;;42.67;16.35;101430.78;10544319;28;20035;-77
2022/07/19 11:00:28;;;;;;;;;;;;;;;42.79;17.45;101423.44;10538603;28;20071;-79
2022/07/19 11:05:29;;;;;;;6.38;3.10;;;;;;;42.53;15.69;101428.28;10531399;28;19928;-78
2022/07/19 11:10:30;;;;;;;12.30;3.53;;;;;;;41.83;17.99;101404.28;10507413;28;20098;-78
2022/07/19 11:15:30;;;;;;;9.32;4.20;;;;;;;41.19;16.35;101404.56;10524155;28;20182;-78
2022/07/19 11:20:32;;;;;;;9.77;4.25;;;;;;;42.39;17.02;101401.88;10522527;28;20505;-77
2022/07/19 11:25:39;;;;;;;11.35;3.78;;;;;;;43.26;16.93;101395.75;10491757;28;20484;-77
2022/07/19 11:30:39;;;;;;;8.27;3.92;;;;;;;43.16;14.40;101386.50;10508583;28;20044;-76
2022/07/19 11:35:40;;;;;;;12.63;4.18;;;;;;;42.10;16.67;101383.91;10537195;28;20569;-75
2022/07/19 11:40:40;;;;;;;4.93;3.20;;;;;;;42.33;17.03;101367.47;10542809;28;20129;-76
2022/07/19 11:45:46;;;;;;;6.50;3.65;;;;;;;42.64;17.33;101373.25;10568060;28;20036;-76
2022/07/19 11:50:46;;;;;;;8.18;3.40;;;;;;;42.34;14.44;101357.34;10515740;28;20078;-77
2022/07/19 11:55:48;;;;;;;5.50;2.22;;;;;;;42.57;14.00;101344.50;10550620;28;20063;-77
2022/07/19 12:00:49;;;;;;;9.90;2.92;;;;;;;42.67;16.26;101334.50;10537594;28;20039;-76
2022/07/19 12:06:01;;;;;;;14.98;3.67;;;;;;;42.65;14.85;101333.75;10554822;28;20122;-78
2022/07/19 12:11:02;;;;;;;6.60;2.55;;;;;;;43.13;12.96;101332.59;10555053;28;20483;-77
2022/07/19 12:16:09;;;;;;;4.55;3.30;;;;;;;42.61;15.45;101325.91;10523429;28;20031;-77
2022/07/19 12:21:20;;;;;;;5.95;2.33;;;;;;;42.89;13.55;101319.00;10551478;28;20115;-77
2022/07/19 12:26:21;;;;;;;6.93;2.47;;;;;;;42.94;13.02;101315.88;10535830;28;20048;-76
2022/07/19 12:31:21;;;;;;;7.20;3.38;;;;;;;42.92;12.21;101321.50;10529713;28;20544;-77
2022/07/19 12:36:35;;;;;;;8.35;2.75;;;;;;;41.99;14.62;101298.69;10527960;28;20069;-76
2022/07/19 12:41:35;;;;;;;5.10;3.15;;;;;;;42.34;12.64;101305.13;10553082;28;20032;-77
2022/07/19 12:46:36;;;;;;;6.28;3.25;;;;;;;42.71;13.40;101293.88;10550863;28;20043;-77
2022/07/19 12:51:42;;;;;;;12.27;3.92;;;;;;;42.58;12.50;101285.75;10546933;28;20049;-77
2022/07/19 12:56:42;;;;;;;7.38;2.92;;;;;;;41.12;14.46;101277.00;10569561;28;20043;-77
2022/07/19 13:01:43;;;;;;;6.60;2.85;;;;;;;40.40;13.95;101268.50;10548254;28;20039;-77
2022/07/19 13:06:44;;;;;;;5.75;2.95;;;;;;;39.87;14.34;101272.25;10535547;28;20410;-78
2022/07/19 13:11:44;;;;;;;8.60;3.22;;;;;;;41.29;13.95;101270.22;10542751;28;20043;-77
2022/07/19 13:16:45;;;;;;;8.25;3.10;;;;;;;42.02;13.34;101264.63;10551453;28;20055;-77
2022/07/19 13:21:45;;;;;;;8.38;2.35;;;;;;;41.84;12.40;101265.06;10536819;28;20135;-76
2022/07/19 13:26:49;;;;;;;7.00;3.17;;;;;;;41.82;12.41;101262.41;10516091;28;20486;-77
2022/07/19 13:31:49;;;;;;;6.22;3.05;;;;;;;41.80;12.83;101256.16;10508411;28;20044;-77
2022/07/19 13:36:50;;;;;;;5.10;2.22;;;;;;;41.61;12.48;101243.03;10531306;28;20027;-78
2022/07/19 13:41:51;;;;;;;10.50;2.55;;;;;;;42.15;12.68;101234.25;10492029;28;20138;-77
2022/07/19 13:46:51;;;;;;;6.68;3.28;;;;;;;41.71;12.86;101229.44;10546983;28;20096;-77
2022/07/19 13:51:52;;;;;;;5.88;2.90;;;;;;;42.40;12.99;101222.13;10522644;28;20131;-76
2022/07/19 13:56:52;;;;;;;10.27;3.90;;;;;;;41.96;12.52;101216.47;10508203;28;20123;-78
2022/07/19 14:01:53;;;;;;;9.27;3.17;;;;;;;41.96;12.20;101209.13;10527428;28;20501;-79
2022/07/19 14:06:53;;;;;;;6.82;3.10;;;;;;;42.07;14.11;101207.41;10525599;28;20032;-77
2022/07/19 14:11:54;;;;;;;5.07;3.25;;;;;;;42.02;13.52;101212.41;10510207;28;20040;-77
2022/07/19 14:16:55;;;;;;;10.73;3.17;;;;;;;41.75;13.34;101199.84;10524191;28;20139;-74
2022/07/19 14:21:56;;;;;;;7.07;3.30;;;;;;;41.89;12.21;101185.88;10553039;28;20046;-82
2022/07/19 14:26:57;;;;;;;16.27;3.50;;;;;;;41.59;13.13;101184.59;10517338;28;20152;-80
2022/07/19 14:31:57;;;;;;;8.85;3.35;;;;;;;41.61;14.06;101171.63;10535110;28;20055;-76
2022/07/19 14:36:58;;;;;;;8.38;3.72;;;;;;;41.61;13.55;101168.00;10515839;28;20452;-76
2022/07/19 14:42:00;;;;;;;4.97;3.53;;;;;;;40.28;14.30;101163.38;10553726;28;20119;-76
2022/07/19 14:47:01;;;;;;;8.23;3.55;;;;;;;39.74;15.46;101153.56;10530891;28;20441;-76
2022/07/19 14:52:02;;;;;;;8.27;3.25;;;;;;;39.46;14.33;101158.25;10525918;28;20498;-77
2022/07/19 14:57:02;;;;;;;4.18;2.72;;;;;;;39.75;14.06;101145.22;10521917;28;20032;-76
2022/07/19 15:02:03;;;;;;;10.00;3.92;;;;;;;39.65;13.65;101147.75;10544489;28;20059;-78
2022/07/19 15:07:03;;;;;;;6.60;3.08;;;;;;;39.37;13.69;101134.28;10547981;28;20046;-77
2022/07/19 15:12:04;;;;;;;12.45;3.70;;;;;;;38.99;14.05;101128.63;10537780;28;20052;-77
2022/07/19 15:17:05;;;;;;;5.50;2.88;;;;;;;38.20;14.05;101125.59;10496400;28;20112;-77
2022/07/19 15:22:05;;;;;;;5.45;2.90;;;;;;;37.61;14.54;101122.03;10547309;28;20119;-76
2022/07/19 15:27:06;;;;;;;10.57;3.50;;;;;;;37.28;14.94;101114.03;10513929;28;20115;-79
2022/07/19 15:32:09;;;;;;;5.85;3.30;;;;;;;36.96;17.73;101117.75;10476507;28;20055;-77
2022/07/19 15:37:09;;;;;;;8.43;3.20;;;;;;;36.84;17.33;101105.72;10515541;28;20035;-77
2022/07/19 15:42:10;;;;;;;6.38;3.05;;;;;;;36.73;16.12;101094.56;10550119;28;20072;-77
2022/07/19 15:47:10;;;;;;;5.28;2.40;;;;;;;36.64;17.08;101103.28;10509939;28;20130;-75
2022/07/19 15:52:13;;;;;;;6.43;3.65;;;;;;;36.56;16.82;101095.59;10531118;28;20048;-74
2022/07/19 15:57:13;;;;;;;6.10;2.47;;;;;;;36.50;15.54;101088.63;10503422;28;20135;-76
2022/07/19 16:02:14;;;;;;;5.28;2.55;;;;;;;36.44;15.65;101083.50;10526759;28;20085;-76
2022/07/19 16:07:15;;;;;;;5.63;3.03;;;;;;;36.43;16.84;101068.13;10512375;28;20039;-78
2022/07/19 16:12:15;;;;;;;5.45;2.90;;;;;;;36.24;16.22;101073.78;10529359;28;20147;-75
2022/07/19 16:17:16;;;;;;;6.22;2.60;;;;;;;36.10;17.31;101067.28;10565647;28;20067;-74
2022/07/19 16:22:16;;;;;;;7.63;2.83;;;;;;;35.81;19.11;101058.91;10553397;28;20047;-74
2022/07/19 16:27:18;;;;;;;6.97;2.78;;;;;;;35.79;20.88;101060.81;10516395;28;20483;-78
2022/07/19 16:32:19;;;;;;;5.55;2.60;;;;;;;35.62;17.78;101044.56;10526520;28;20530;-76
2022/07/19 16:37:21;;;;;;;6.45;3.03;;;;;;;35.64;17.48;101040.78;10528596;28;20063;-78
2022/07/19 16:42:22;;;;;;;7.13;3.10;;;;;;;35.53;20.18;101033.22;10537281;28;20045;-77
2022/07/19 16:47:22;;;;;;;4.93;3.20;;;;;;;35.37;19.43;101022.25;10542647;28;20063;-79
2022/07/19 16:52:23;;;;;;;8.68;3.15;;;;;;;35.33;19.85;101017.94;10552320;28;20776;-79
2022/07/19 16:57:24;;;;;;;6.88;3.40;;;;;;;35.07;20.02;101022.09;10538190;28;20075;-79
2022/07/19 17:02:24;;;;;;;5.78;2.80;;;;;;;34.95;19.19;101018.13;10561477;28;20487;-77
2022/07/19 17:07:25;;;;;;;5.18;2.33;;;;;;;34.98;17.81;101004.41;10551495;28;20032;-76
2022/07/19 17:12:25;;;;;;;5.57;2.15;;;;;;;34.95;21.95;101018.13;10523186;28;20122;-77
2022/07/19 17:17:26;;;;;;;8.15;2.90;;;;;;;34.78;18.88;101005.44;10508447;28;20039;-77
2022/07/19 17:22:26;;;;;;;8.20;3.25;;;;;;;34.69;21.09;101009.50;10519659;28;20483;-77
2022/07/19 17:27:27;;;;;;;5.50;2.75;;;;;;;34.36;20.00;101005.72;10546368;28;20459;-77
2022/07/19 17:32:27;;;;;;;5.40;3.03;;;;;;;34.35;19.41;101009.38;10531156;28;20039;-77
2022/07/19 17:37:28;;;;;;;10.35;2.33;;;;;;;34.10;20.89;101013.34;10553951;28;20395;-76
2022/07/19 17:42:29;;;;;;;4.93;2.67;;;;;;;33.98;20.73;101005.78;10549842;28;20039;-77
2022/07/19 17:47:29;;;;;;;6.93;2.78;;;;;;;33.70;22.65;101009.81;10502584;28;20024;-77
2022/07/19 17:52:30;;;;;;;9.63;3.58;;;;;;;33.46;21.15;101007.28;10541738;28;20032;-76
2022/07/19 17:57:31;;;;;;;10.95;3.72;;;;;;;33.30;20.61;101012.50;10549295;28;20032;-76
2022/07/19 18:02:31;;;;;;;7.53;3.25;;;;;;;33.37;23.79;101018.53;10526564;28;20500;-77
2022/07/19 18:07:32;;;;;;;7.82;3.67;;;;;;;33.13;20.49;101001.53;10467477;28;20040;-77
2022/07/19 18:12:33;;;;;;;5.55;3.58;;;;;;;33.07;21.92;101014.41;10490506;28;20047;-77
2022/07/19 18:17:33;;;;;;;5.38;2.85;;;;;;;32.81;20.64;101024.56;10520533;28;20436;-76
2022/07/19 18:22:34;;;;;;;5.00;2.83;;;;;;;32.34;23.65;101016.63;10550062;28;20110;-77
2022/07/19 18:27:34;;;;;;;;;;;;;;;31.81;22.52;101010.59;10534986;28;20052;-78
2022/07/19 18:32:35;;;;;;;7.00;2.90;;;;;;;31.48;25.99;101014.53;10507379;28;19924;-77
2022/07/19 18:37:35;;;;;;;16.23;5.47;;;;;;;31.19;25.38;101013.78;10516610;28;20036;-77
2022/07/19 18:42:36;;;;;;;8.82;4.32;;;;;;;31.03;25.36;101012.53;10526278;28;20060;-76
2022/07/19 18:47:36;;;;;;;3.67;2.33;;;;;;;30.78;27.07;101018.81;10524537;28;20167;-77
2022/07/19 18:52:37;;;;;;;10.02;3.45;;;;;;;30.25;26.77;101019.63;10535218;28;20123;-77
2022/07/19 18:57:37;;;;;;;7.47;3.47;;;;;;;30.09;28.57;101009.34;10514883;28;20557;-77
2022/07/19 19:02:38;;;;;;;5.13;3.60;;;;;;;29.78;26.26;101021.06;10529374;28;20463;-77
2022/07/19 19:07:38;;;;;;;3.40;3.00;;;;;;;29.48;29.01;101020.16;10525830;28;20048;-76
2022/07/19 19:12:39;;;;;;;4.78;4.00;;;;;;;28.85;30.48;101026.31;10533121;28;20036;-77
2022/07/19 19:17:39;;;;;;;6.97;4.13;;;;;;;28.31;31.64;101017.78;10514370;28;20126;-77
2022/07/19 19:22:40;;;;;;;5.40;3.47;;;;;;;27.85;33.18;101022.41;10514558;28;20046;-77
2022/07/19 19:27:41;;;;;;;6.97;4.13;;;;;;;27.39;34.36;101029.56;10513945;28;20552;-78
2022/07/19 19:32:42;;;;;;;7.35;3.90;;;;;;;27.06;33.40;101038.28;10512344;28;20082;-76
2022/07/19 19:37:42;;;;;;;7.77;3.50;;;;;;;27.08;35.36;101038.22;10489262;28;20448;-77
2022/07/19 19:42:43;;;;;;;8.43;3.97;;;;;;;26.90;34.65;101043.00;10535908;28;20127;-76
2022/07/19 19:47:44;;;;;;;5.90;3.13;;;;;;;26.62;35.36;101050.63;10515968;28;20140;-75
2022/07/19 19:52:45;;;;;;;7.10;3.78;;;;;;;26.28;35.20;101045.81;10527487;28;20028;-76
2022/07/19 19:57:45;;;;;;;7.33;5.00;;;;;;;25.89;36.98;101051.66;10529275;28;20450;-75
2022/07/19 20:02:46;;;;;;;11.53;4.30;;;;;;;25.83;35.78;101041.00;10512616;28;20447;-76
2022/07/19 20:07:46;;;;;;;6.17;3.93;;;;;;;25.59;38.04;101049.34;10529097;28;20107;-76
2022/07/19 20:12:49;;;;;;;8.23;4.53;;;;;;;25.35;40.26;101051.38;10517619;28;20131;-76
2022/07/19 20:17:50;;;;;;;6.18;3.80;;;;;;;25.16;41.87;101052.47;10494495;28;20039;-74
2022/07/19 20:22:50;;;;;;;7.07;3.03;;;;;;;24.91;41.84;101063.44;10537410;28;20480;-74
2022/07/19 20:27:51;;;;;;;4.77;3.33;;;;;;;24.61;44.73;101063.63;10482570;28;20040;-74
2022/07/19 20:32:51;;;;;;;9.27;4.10;;;;;;;24.38;41.76;101058.44;10510427;28;20036;-74
2022/07/19 20:37:53;;;;;;;9.43;3.23;;;;;;;24.17;41.95;101062.13;10536780;28;20115;-74
2022/07/19 20:42:53;;;;;;;;;;;;;;;24.02;43.60;101061.31;10539948;28;20093;-73
2022/07/19 20:47:54;;;;;;;9.80;4.10;;;;;;;23.86;44.53;101056.91;10538901;28;19924;-74
2022/07/19 20:52:54;;;;;;;6.53;3.73;;;;;;;23.73;44.53;101066.78;10492907;28;20032;-74
2022/07/19 20:57:55;;;;;;;8.83;4.53;;;;;;;23.52;45.73;101062.38;10521429;28;20052;-73
2022/07/19 21:02:56;;;;;;;7.27;4.00;;;;;;;23.26;46.56;101058.91;10509247;28;20556;-74
2022/07/19 21:07:56;;;;;;;10.50;4.43;;;;;;;23.05;45.95;101069.56;10506164;28;20043;-74
2022/07/19 21:12:57;;;;;;;7.60;3.47;;;;;;;22.81;46.66;101060.69;10492849;28;20545;-74
2022/07/19 21:17:57;;;;;;;6.60;4.00;;;;;;;22.64;47.54;101063.34;10527551;28;20148;-75
2022/07/19 21:22:58;;;;;;;9.33;3.77;;;;;;;22.54;46.47;101067.78;10507577;28;20032;-75
2022/07/19 21:27:58;;;;;;;7.67;4.17;;;;;;;22.47;46.43;101058.88;10514045;28;20484;-75
2022/07/19 21:32:59;;;;;;;9.17;4.23;;;;;;;22.38;46.19;101066.81;10492241;28;20052;-73
2022/07/19 21:37:59;;;;;;;6.63;4.13;;;;;;;22.30;46.66;101064.16;10539828;28;20044;-74
2022/07/19 21:43:00;;;;;;;5.50;3.77;;;;;;;22.28;46.23;101072.13;10507291;28;20044;-74
2022/07/19 21:48:00;;;;;;;5.97;3.43;;;;;;;22.07;47.47;101072.97;10499471;28;20035;-74
2022/07/19 21:53:03;;;;;;;5.65;3.72;;;;;;;21.87;47.50;101066.69;10511788;28;20395;-74
2022/07/19 21:58:03;;;;;;;8.77;3.92;;;;;;;21.77;50.13;101073.72;10535558;28;20044;-76
2022/07/19 22:03:04;;;;;;;6.35;3.80;;;;;;;21.58;50.64;101072.72;10545371;28;20059;-76
2022/07/19 22:08:05;;;;;;;4.38;3.70;;;;;;;21.38;51.42;101074.38;10548055;28;20536;-76
2022/07/19 22:13:05;;;;;;;5.80;5.07;;;;;;;21.24;52.14;101071.66;10529006;28;20365;-76
2022/07/19 22:18:06;;;;;;;7.47;4.30;;;;;;;21.13;52.29;101078.66;10527216;28;20398;-76
2022/07/19 22:23:06;;;;;;;6.13;4.55;;;;;;;21.06;52.32;101076.84;10545853;28;20070;-76
2022/07/19 22:28:07;;;;;;;9.52;5.88;;;;;;;20.94;53.51;101074.97;10518140;28;20567;-77
2022/07/19 22:33:08;;;;;;;5.57;4.18;;;;;;;20.84;55.73;101082.00;10520897;28;20051;-76
2022/07/19 22:38:08;;;;;;;7.95;4.78;;;;;;;20.73;56.65;101073.00;10534031;28;20384;-76
2022/07/19 22:43:09;;;;;;;5.68;4.32;;;;;;;20.60;57.88;101074.63;10480229;28;20495;-75
2022/07/19 22:48:10;;;;;;;8.80;4.45;;;;;;;20.51;58.54;101070.13;10531323;28;20035;-77
2022/07/19 22:53:13;;;;;;;7.68;4.35;;;;;;;20.52;57.99;101070.13;10518868;28;20066;-75
2022/07/19 22:58:14;;;;;;;13.57;6.78;;;;;;;20.43;57.86;101061.19;10485178;28;20036;-76
2022/07/19 23:03:14;;;;;;;9.15;4.22;;;;;;;20.38;58.51;101061.13;10496766;28;20040;-76